Time;durP1;ratioP1;P1;durP2;ratioP2;P2;SDS_P1;SDS_P2;PMS_P1;PMS_P2;Temp;Humidity;BMP_temperature;BMP_pressure;BME280_temperature;BME280_humidity;BME280_pressure;Samples;Min_cycle;Max_cycle;Signal;HPM_P1;HPM_P2
2023/08/24 00:00:22;;;;;;;5.90;4.35;;;;;;;19.09;100.00;96146.41;1014698;29;20020;-72
2023/08/24 00:00:53;;;;;;;4.20;3.80;;;;;;;19.13;100.00;96151.88;1022559;29;20576;-74
2023/08/24 00:01:23;;;;;;;6.53;3.95;;;;;;;19.10;100.00;96147.19;1010844;29;20083;-73
2023/08/24 00:01:54;;;;;;;4.78;3.55;;;;;;;19.13;100.00;96152.66;1014659;29;20030;-73
2023/08/24 00:02:24;;;;;;;4.47;3.85;;;;;;;19.11;100.00;96149.53;1018829;29;20023;-72
2023/08/24 00:02:54;;;;;;;5.45;4.10;;;;;;;19.13;100.00;96158.00;1022688;28;20062;-73
2023/08/24 00:03:25;;;;;;;5.00;4.50;;;;;;;19.14;100.00;96151.56;1025847;28;20023;-72
2023/08/24 00:03:56;;;;;;;4.07;3.63;;;;;;;19.13;100.00;96154.56;1026571;28;20030;-71
2023/08/24 00:04:26;;;;;;;7.00;3.95;;;;;;;19.13;100.00;96151.88;1022691;29;20032;-72
2023/08/24 00:04:57;;;;;;;5.55;4.25;;;;;;;19.13;100.00;96151.88;1018657;29;20023;-72
2023/08/24 00:05:27;;;;;;;6.85;4.10;;;;;;;19.13;100.00;96157.22;1018558;29;20023;-73
2023/08/24 00:05:58;;;;;;;5.28;4.35;;;;;;;19.12;100.00;96160.97;1018750;29;20028;-72
2023/08/24 00:06:28;;;;;;;4.75;4.07;;;;;;;19.12;100.00;96160.97;1014963;29;20024;-73
2023/08/24 00:06:59;;;;;;;4.65;4.10;;;;;;;19.11;100.00;96162.81;1018614;29;20035;-72
2023/08/24 00:07:29;;;;;;;5.82;4.30;;;;;;;19.12;100.00;96161.75;1014747;29;20020;-73
2023/08/24 00:08:00;;;;;;;5.65;4.82;;;;;;;19.05;100.00;96156.88;1014897;29;20043;-72
2023/08/24 00:08:30;;;;;;;5.25;4.43;;;;;;;19.10;100.00;96165.81;1018688;29;20079;-72
2023/08/24 00:09:01;;;;;;;4.20;3.80;;;;;;;19.05;100.00;96162.19;1018587;29;20515;-72
2023/08/24 00:09:31;;;;;;;5.57;3.90;;;;;;;19.02;100.00;96162.78;1014773;29;20433;-73
2023/08/24 00:10:03;;;;;;;5.18;4.28;;;;;;;19.05;100.00;96161.41;1014768;29;20075;-72
2023/08/24 00:10:35;;;;;;;4.35;3.95;;;;;;;18.92;100.00;96138.34;1014552;29;20028;-72
2023/08/24 00:11:05;;;;;;;5.47;4.13;;;;;;;19.03;100.00;96159.03;1010886;29;20035;-72
2023/08/24 00:11:37;;;;;;;4.40;4.00;;;;;;;19.00;100.00;96159.66;1015145;29;20043;-72
2023/08/24 00:12:07;;;;;;;4.80;3.78;;;;;;;18.96;100.00;96160.56;1018523;29;20024;-74
2023/08/24 00:12:39;;;;;;;6.82;3.95;;;;;;;18.99;100.00;96162.63;1022796;28;20026;-72
2023/08/24 00:13:09;;;;;;;6.47;4.05;;;;;;;18.99;100.00;96157.31;1014788;29;20028;-72
2023/08/24 00:13:41;;;;;;;5.53;4.50;;;;;;;19.00;100.00;96164.19;1018371;29;20548;-71
2023/08/24 00:14:11;;;;;;;6.65;4.05;;;;;;;19.00;100.00;96169.50;1014652;29;20106;-71
2023/08/24 00:14:42;;;;;;;5.40;4.05;;;;;;;19.00;100.00;96159.66;1018999;29;20028;-71
2023/08/24 00:15:13;;;;;;;4.70;4.22;;;;;;;19.01;100.00;96152.44;1026690;28;20098;-72
2023/08/24 00:15:44;;;;;;;5.10;4.13;;;;;;;19.01;100.00;96161.25;1022525;28;20039;-72
2023/08/24 00:16:16;;;;;;;5.60;4.20;;;;;;;19.02;100.00;96157.47;1022639;29;20154;-72
2023/08/24 00:16:46;;;;;;;4.30;3.90;;;;;;;19.01;100.00;96158.56;1014457;29;20016;-72
2023/08/24 00:17:17;;;;;;;4.70;3.65;;;;;;;18.99;100.00;96159.97;1014879;29;20028;-72
2023/08/24 00:17:47;;;;;;;6.45;4.85;;;;;;;18.94;100.00;96155.53;1014736;29;20028;-73
2023/08/24 00:18:19;;;;;;;5.57;4.00;;;;;;;18.96;100.00;96158.69;1018559;29;20604;-72
2023/08/24 00:18:49;;;;;;;4.65;3.90;;;;;;;19.00;100.00;96158.88;1022548;29;20026;-73
2023/08/24 00:19:20;;;;;;;6.75;3.83;;;;;;;19.00;100.00;96159.66;1014661;29;20537;-73
2023/08/24 00:19:50;;;;;;;6.82;3.97;;;;;;;18.99;100.00;96155.44;1018644;29;20103;-72
2023/08/24 00:20:21;;;;;;;4.90;3.92;;;;;;;18.99;100.00;96163.41;1018702;29;20023;-72
2023/08/24 00:20:51;;;;;;;5.85;4.35;;;;;;;18.98;100.00;96161.03;1026551;28;20034;-71
2023/08/24 00:21:22;;;;;;;9.18;5.57;;;;;;;18.95;100.00;96156.34;1026659;28;20031;-72
2023/08/24 00:21:53;;;;;;;7.30;4.55;;;;;;;18.96;100.00;96157.91;1018649;29;20396;-73
2023/08/24 00:22:23;;;;;;;5.57;4.00;;;;;;;18.94;100.00;96152.09;1018368;29;20035;-72
2023/08/24 00:22:54;;;;;;;7.10;4.10;;;;;;;18.95;100.00;96156.34;1014857;29;20649;-74
2023/08/24 00:23:25;;;;;;;6.32;4.32;;;;;;;18.95;100.00;96159.00;1014188;29;20028;-72
2023/08/24 00:23:55;;;;;;;4.40;3.97;;;;;;;18.96;100.00;96157.91;1018717;29;20067;-72
2023/08/24 00:24:26;;;;;;;6.30;4.15;;;;;;;18.94;100.00;96160.88;1022573;29;20023;-73
2023/08/24 00:24:56;;;;;;;5.30;4.25;;;;;;;18.88;100.00;96151.47;1022688;29;20116;-73
2023/08/24 00:25:26;;;;;;;5.28;4.00;;;;;;;18.94;100.00;96158.22;1022557;29;20020;-72
2023/08/24 00:25:57;;;;;;;6.28;4.40;;;;;;;18.92;100.00;96152.44;1018435;29;20026;-72
2023/08/24 00:26:27;;;;;;;6.20;4.30;;;;;;;18.91;100.00;96156.16;1014791;29;20028;-73
2023/08/24 00:26:58;;;;;;;7.95;4.30;;;;;;;18.86;100.00;96148.31;1018542;29;20024;-72
2023/08/24 00:27:28;;;;;;;5.60;4.55;;;;;;;18.89;100.00;96157.56;1022461;28;20035;-73
2023/08/24 00:27:59;;;;;;;4.30;3.90;;;;;;;18.89;100.00;96158.34;1022510;29;20035;-72
2023/08/24 00:28:30;;;;;;;4.82;4.28;;;;;;;18.89;100.00;96163.66;1018655;29;20035;-72
2023/08/24 00:29:00;;;;;;;7.22;4.10;;;;;;;18.85;100.00;96152.09;1018450;29;20043;-73
2023/08/24 00:29:30;;;;;;;4.65;3.92;;;;;;;18.84;100.00;96153.16;1014705;29;20162;-72
2023/08/24 00:30:06;;;;;;;4.03;3.63;;;;;;;18.87;100.00;96168.50;1018635;29;20035;-72
2023/08/24 00:30:36;;;;;;;7.53;4.25;;;;;;;18.87;100.00;96157.84;1018491;29;20070;-73
2023/08/24 00:31:07;;;;;;;6.03;4.28;;;;;;;18.86;100.00;96163.50;1018463;29;20481;-73
2023/08/24 00:31:37;;;;;;;7.00;4.18;;;;;;;18.84;100.00;96158.47;1026616;28;20031;-73
2023/08/24 00:32:08;;;;;;;4.88;3.97;;;;;;;18.85;100.00;96162.72;1022608;29;20540;-72
2023/08/24 00:32:38;;;;;;;5.75;4.15;;;;;;;18.80;100.00;96154.84;1022393;29;20091;-73
2023/08/24 00:33:09;;;;;;;8.55;4.30;;;;;;;18.82;100.00;96158.00;1022658;28;20023;-73
2023/08/24 00:33:39;;;;;;;4.80;4.15;;;;;;;18.83;100.00;96164.88;1022046;28;20035;-73
2023/08/24 00:34:10;;;;;;;5.85;4.47;;;;;;;18.83;100.00;96162.22;1022534;28;20397;-72
2023/08/24 00:34:40;;;;;;;7.80;4.50;;;;;;;18.80;100.00;96166.28;1022354;29;20035;-72
2023/08/24 00:35:11;;;;;;;7.93;4.53;;;;;;;18.80;100.00;96166.28;1018779;29;20509;-73
2023/08/24 00:35:41;;;;;;;7.47;4.70;;;;;;;18.78;100.00;96167.69;1022689;28;20038;-73
2023/08/24 00:36:12;;;;;;;12.27;5.53;;;;;;;18.74;100.00;96161.38;1030492;28;20026;-71
2023/08/24 00:36:42;;;;;;;7.20;4.95;;;;;;;18.74;100.00;96158.72;1018515;29;20031;-72
2023/08/24 00:37:13;;;;;;;6.40;4.72;;;;;;;18.76;100.00;96161.88;1014701;29;20035;-72
2023/08/24 00:37:43;;;;;;;6.10;4.47;;;;;;;18.70;100.00;96155.84;1010697;29;20040;-73
2023/08/24 00:38:14;;;;;;;5.45;4.40;;;;;;;18.73;100.00;96159.81;1018809;28;20096;-72
2023/08/24 00:38:45;;;;;;;5.90;4.85;;;;;;;18.72;100.00;96164.34;1006845;29;20029;-72
2023/08/24 00:39:16;;;;;;;7.88;5.00;;;;;;;18.73;100.00;96165.13;1006952;29;20032;-72
2023/08/24 00:39:46;;;;;;;8.50;5.07;;;;;;;18.71;100.00;96156.63;1010712;29;20017;-72
2023/08/24 00:40:18;;;;;;;6.88;4.82;;;;;;;18.74;100.00;96161.38;1018495;29;20023;-72
2023/08/24 00:40:48;;;;;;;10.60;5.20;;;;;;;18.75;100.00;96155.00;1022365;29;20539;-71
2023/08/24 00:41:21;;;;;;;5.65;4.60;;;;;;;18.76;100.00;96164.53;1022298;28;20026;-72
2023/08/24 00:41:51;;;;;;;6.13;4.75;;;;;;;18.77;100.00;96160.78;1014619;29;20016;-72
2023/08/24 00:42:22;;;;;;;5.82;5.20;;;;;;;18.76;100.00;96160.00;1018532;29;20103;-72
2023/08/24 00:42:52;;;;;;;10.82;5.10;;;;;;;18.75;100.00;96157.66;1022557;29;20020;-71
2023/08/24 00:43:24;;;;;;;11.50;4.88;;;;;;;18.68;100.00;96147.41;1019612;29;20030;-71
2023/08/24 00:43:54;;;;;;;6.47;5.05;;;;;;;18.69;100.00;96145.53;1022445;29;20110;-73
2023/08/24 00:44:25;;;;;;;8.40;4.78;;;;;;;18.73;100.00;96151.84;1018840;29;20031;-72
2023/08/24 00:44:55;;;;;;;9.27;5.45;;;;;;;18.70;100.00;96152.41;1022368;29;20023;-73
2023/08/24 00:45:26;;;;;;;7.22;5.20;;;;;;;18.69;100.00;96150.84;1022645;28;20042;-73
2023/08/24 00:45:57;;;;;;;8.07;4.97;;;;;;;18.74;100.00;96161.38;1026548;28;20027;-72
2023/08/24 00:46:27;;;;;;;6.82;4.97;;;;;;;18.73;100.00;96155.28;1018583;29;20449;-72
2023/08/24 00:46:58;;;;;;;7.97;4.70;;;;;;;18.72;100.00;96155.59;1018345;29;20015;-72
2023/08/24 00:47:29;;;;;;;6.72;4.55;;;;;;;18.71;100.00;96156.63;1018658;29;20385;-72
2023/08/24 00:47:59;;;;;;;7.50;4.82;;;;;;;18.68;100.00;96149.28;1018569;29;20385;-72
2023/08/24 00:48:30;;;;;;;7.18;5.10;;;;;;;18.73;100.00;96159.81;1026367;28;20062;-72
2023/08/24 00:49:00;;;;;;;7.18;5.00;;;;;;;18.69;100.00;96148.19;1026522;28;20027;-72
2023/08/24 00:49:31;;;;;;;13.50;5.63;;;;;;;18.70;100.00;96157.75;1018526;29;20044;-72
2023/08/24 00:50:01;;;;;;;6.72;5.75;;;;;;;18.65;100.00;96152.56;1017761;29;20016;-73
2023/08/24 00:50:32;;;;;;;6.88;4.97;;;;;;;18.64;100.00;96151.75;1022431;29;20015;-72
2023/08/24 00:51:02;;;;;;;8.05;4.75;;;;;;;18.67;100.00;96158.34;1022415;29;20026;-71
2023/08/24 00:51:33;;;;;;;6.75;5.20;;;;;;;18.65;100.00;96163.19;1026448;28;20113;-71
2023/08/24 00:52:03;;;;;;;8.23;5.68;;;;;;;18.61;100.00;96150.50;1018893;29;20076;-73
2023/08/24 00:52:34;;;;;;;7.10;5.20;;;;;;;18.65;100.00;96157.88;1018555;29;20536;-72
2023/08/24 00:53:04;;;;;;;5.40;4.55;;;;;;;18.64;100.00;96156.28;1010748;29;20021;-72
2023/08/24 00:53:35;;;;;;;6.57;5.18;;;;;;;18.59;100.00;96150.00;1017542;29;20023;-72
2023/08/24 00:54:05;;;;;;;6.55;4.93;;;;;;;18.65;100.00;96155.22;1014674;29;20392;-72
2023/08/24 00:54:36;;;;;;;6.60;5.47;;;;;;;18.63;100.00;96155.50;1014740;29;20032;-73
2023/08/24 00:55:07;;;;;;;6.93;5.72;;;;;;;18.58;100.00;96148.44;1006664;29;20053;-72
2023/08/24 00:55:38;;;;;;;7.32;5.60;;;;;;;18.62;100.00;96156.59;1013876;29;20421;-72
2023/08/24 00:56:08;;;;;;;7.25;5.28;;;;;;;18.57;100.00;96149.53;1017481;29;20022;-72
2023/08/24 00:56:39;;;;;;;6.45;5.18;;;;;;;18.60;100.00;96162.22;1014882;29;20036;-72
2023/08/24 00:57:10;;;;;;;7.72;5.55;;;;;;;18.57;100.00;96152.19;1022179;29;20064;-73
2023/08/24 00:57:41;;;;;;;10.75;5.47;;;;;;;18.59;100.00;96158.00;1018465;29;20055;-72
2023/08/24 00:58:13;;;;;;;8.48;5.82;;;;;;;18.59;100.00;96149.22;1014601;29;20012;-73
2023/08/24 00:58:44;;;;;;;7.97;5.57;;;;;;;18.52;100.00;96149.66;1022440;29;20035;-72
2023/08/24 00:59:14;;;;;;;7.10;5.47;;;;;;;18.57;100.00;96162.03;1022492;29;20042;-72
2023/08/24 00:59:46;;;;;;;7.63;5.60;;;;;;;18.54;100.00;96159.97;1018406;29;20063;-72
2023/08/24 01:00:16;;;;;;;7.32;5.05;;;;;;;18.54;100.00;96158.13;1026261;28;20038;-72
2023/08/24 01:00:51;;;;;;;6.72;4.95;;;;;;;18.50;100.00;96153.69;1026509;28;20027;-73
2023/08/24 01:01:21;;;;;;;7.03;5.40;;;;;;;18.54;100.00;96155.47;1014381;29;20119;-71
2023/08/24 01:01:52;;;;;;;9.70;5.38;;;;;;;18.54;100.00;96152.81;1014484;29;20028;-72
2023/08/24 01:02:22;;;;;;;7.78;5.32;;;;;;;18.52;100.00;96157.63;1018561;29;20493;-73
2023/08/24 01:02:53;;;;;;;7.90;4.78;;;;;;;18.51;100.00;96158.72;1015159;28;20050;-72
2023/08/24 01:03:24;;;;;;;10.07;5.40;;;;;;;18.49;100.00;96158.25;1025674;28;20030;-72
2023/08/24 01:03:54;;;;;;;9.98;5.53;;;;;;;18.50;100.00;96151.81;1014453;29;20048;-72
2023/08/24 01:04:25;;;;;;;10.02;5.65;;;;;;;18.45;100.00;96148.53;1014702;29;20020;-72
2023/08/24 01:04:55;;;;;;;8.07;5.28;;;;;;;18.47;100.00;96157.75;1014562;29;20600;-73
2023/08/24 01:05:26;;;;;;;10.88;5.70;;;;;;;18.49;100.00;96160.91;1018439;29;20023;-72
2023/08/24 01:05:56;;;;;;;9.10;5.43;;;;;;;18.50;100.00;96162.44;1018396;29;20008;-70
2023/08/24 01:06:27;;;;;;;12.35;7.25;;;;;;;18.49;100.00;96155.59;1018622;29;20023;-73
2023/08/24 01:06:57;;;;;;;7.88;5.40;;;;;;;18.47;100.00;96155.09;1018211;29;20024;-72
2023/08/24 01:07:27;;;;;;;8.32;4.95;;;;;;;18.42;100.00;96155.22;1010712;29;20482;-72
2023/08/24 01:07:58;;;;;;;8.85;5.38;;;;;;;18.46;100.00;96155.41;1018467;29;20016;-72
2023/08/24 01:08:28;;;;;;;6.82;5.30;;;;;;;18.44;100.00;96158.34;1018570;29;20541;-72
2023/08/24 01:08:59;;;;;;;11.30;5.47;;;;;;;18.45;100.00;96159.94;1014383;29;20016;-72
2023/08/24 01:09:29;;;;;;;6.75;5.10;;;;;;;18.46;100.00;96158.84;1003247;29;20024;-72
2023/08/24 01:10:00;;;;;;;11.52;5.28;;;;;;;18.40;100.00;96152.06;1006786;29;20032;-72
2023/08/24 01:10:44;;;;;;;12.43;5.80;;;;;;;18.44;100.00;96166.31;1018455;29;20019;-72
2023/08/24 01:11:26;;;;;;;7.53;5.03;;;;;;;18.44;100.00;96161.00;1006834;29;20111;-73
2023/08/24 01:12:11;;;;;;;7.13;5.30;;;;;;;18.43;100.00;96162.09;1014472;29;20016;-72
2023/08/24 01:13:10;;;;;;;7.25;4.88;;;;;;;18.45;100.00;96162.59;1022481;29;20078;-72
2023/08/24 01:14:18;;;;;;;11.10;5.18;;;;;;;18.35;100.00;96150.31;1010345;29;20035;-72
2023/08/24 01:15:19;;;;;;;8.82;5.18;;;;;;;18.40;100.00;96151.28;1010212;29;20037;-72
2023/08/24 01:16:00;;;;;;;;;;;;;;;18.39;100.00;96158.47;1006850;29;20039;-73
2023/08/24 01:16:31;;;;;;;8.38;4.88;;;;;;;18.39;100.00;96155.81;1011228;29;19948;-72
2023/08/24 01:17:02;;;;;;;12.05;5.22;;;;;;;18.36;100.00;96153.75;1014412;29;20486;-72
2023/08/24 01:17:32;;;;;;;7.85;5.07;;;;;;;18.35;100.00;96157.53;1010308;29;20628;-72
2023/08/24 01:18:05;;;;;;;8.40;5.72;;;;;;;18.33;100.00;96152.50;1018499;29;20505;-72
2023/08/24 01:18:36;;;;;;;8.00;5.72;;;;;;;18.35;100.00;96155.63;1018497;29;20035;-72
2023/08/24 01:19:07;;;;;;;6.32;4.97;;;;;;;18.37;100.00;96157.97;1018433;29;20012;-72
2023/08/24 01:19:39;;;;;;;6.28;5.28;;;;;;;18.32;100.00;96148.28;1018413;29;20441;-72
2023/08/24 01:20:10;;;;;;;8.10;4.88;;;;;;;18.31;100.00;96148.59;1010617;29;20645;-72
2023/08/24 01:20:41;;;;;;;7.82;5.20;;;;;;;18.31;100.00;96148.59;1018291;29;20026;-72
2023/08/24 01:21:12;;;;;;;8.45;5.13;;;;;;;18.34;100.00;96153.28;1014617;29;20027;-72
2023/08/24 01:21:42;;;;;;;8.40;5.32;;;;;;;18.34;100.00;96159.41;1018388;29;20024;-72
2023/08/24 01:22:22;;;;;;;6.47;5.30;;;;;;;18.28;100.00;96146.53;1014421;29;20033;-72
2023/08/24 01:23:07;;;;;;;7.57;4.93;;;;;;;18.30;100.00;96157.63;1018563;29;20777;-72
2023/08/24 01:23:53;;;;;;;6.97;5.55;;;;;;;18.32;100.00;96160.78;1017808;29;20510;-72
2023/08/24 01:24:38;;;;;;;7.03;5.18;;;;;;;18.30;100.00;96152.31;1018260;29;20015;-72
2023/08/24 01:25:33;;;;;;;7.65;5.03;;;;;;;18.29;100.00;96159.50;1022496;28;20071;-72
2023/08/24 01:26:30;;;;;;;6.32;4.95;;;;;;;18.29;100.00;96166.69;1022348;29;20047;-72
2023/08/24 01:27:01;;;;;;;14.68;6.32;;;;;;;18.27;100.00;96159.00;1021197;29;20039;-72
2023/08/24 01:27:32;;;;;;;7.47;5.55;;;;;;;18.24;100.00;96158.81;1022191;29;20028;-72
2023/08/24 01:28:02;;;;;;;7.07;4.95;;;;;;;18.25;100.00;96155.09;1014934;29;20051;-72
2023/08/24 01:28:33;;;;;;;6.72;5.18;;;;;;;18.22;100.00;96151.16;1014417;29;20039;-71
2023/08/24 01:29:04;;;;;;;7.38;5.38;;;;;;;18.23;100.00;96155.38;1022218;29;20027;-72
2023/08/24 01:29:34;;;;;;;7.57;4.97;;;;;;;18.27;100.00;96166.19;1018477;29;20036;-72
2023/08/24 01:30:06;;;;;;;12.68;6.90;;;;;;;18.27;100.00;96163.53;1010697;29;20390;-73
2023/08/24 01:30:36;;;;;;;7.90;4.93;;;;;;;18.26;100.00;96161.97;1018404;29;20015;-71
2023/08/24 01:31:07;;;;;;;7.07;5.22;;;;;;;18.25;100.00;96165.72;1018335;29;20378;-72
2023/08/24 01:31:38;;;;;;;6.60;5.25;;;;;;;18.25;100.00;96165.72;1010643;29;20024;-72
2023/08/24 01:32:13;;;;;;;6.47;5.18;;;;;;;18.23;100.00;96162.56;1011379;29;20020;-72
2023/08/24 01:32:44;;;;;;;7.82;5.07;;;;;;;18.23;100.00;96163.34;1013383;29;20044;-71
2023/08/24 01:33:14;;;;;;;8.35;5.43;;;;;;;18.20;100.00;96157.84;1020003;29;20035;-71
2023/08/24 01:33:45;;;;;;;5.78;4.75;;;;;;;18.18;100.00;96166.16;1023575;29;20039;-72
2023/08/24 01:34:16;;;;;;;7.80;5.32;;;;;;;18.17;100.00;96164.56;1023635;29;20106;-72
2023/08/24 01:34:46;;;;;;;6.93;5.47;;;;;;;18.17;100.00;96158.47;1019667;29;20027;-73
2023/08/24 01:35:16;;;;;;;7.03;5.03;;;;;;;18.18;100.00;96165.38;1027894;28;20030;-73
2023/08/24 01:35:47;;;;;;;6.82;5.50;;;;;;;18.18;100.00;96170.69;1027827;28;20620;-72
2023/08/24 01:36:17;;;;;;;6.95;5.50;;;;;;;18.16;100.00;96163.00;1023155;29;20019;-72
2023/08/24 01:36:48;;;;;;;9.48;5.43;;;;;;;18.16;100.00;96156.91;1015841;29;20024;-71
2023/08/24 01:37:18;;;;;;;6.45;5.20;;;;;;;18.19;100.00;96166.91;1019789;29;20039;-72
2023/08/24 01:37:49;;;;;;;5.40;4.80;;;;;;;18.13;100.00;96159.06;1019669;29;20028;-71
2023/08/24 01:38:19;;;;;;;7.00;5.53;;;;;;;18.18;100.00;96165.38;1023878;28;20388;-72
2023/08/24 01:38:57;;;;;;;8.43;5.50;;;;;;;18.16;100.00;96167.53;1019726;29;20449;-72
2023/08/24 01:39:39;;;;;;;5.55;4.72;;;;;;;18.16;100.00;96162.22;1015660;29;20020;-72
2023/08/24 01:40:16;;;;;;;9.40;5.68;;;;;;;18.17;100.00;96169.88;1019863;29;20061;-71
2023/08/24 01:41:14;;;;;;;6.70;5.68;;;;;;;18.17;100.00;96163.78;1016013;29;20058;-72
2023/08/24 01:41:44;;;;;;;7.32;5.72;;;;;;;18.11;100.00;96158.59;1022157;29;20007;-73
2023/08/24 01:42:18;;;;;;;6.05;4.90;;;;;;;18.16;100.00;96167.53;1023741;29;20082;-73
2023/08/24 01:42:54;;;;;;;6.55;5.55;;;;;;;18.16;100.00;96164.88;1027808;28;20027;-72
2023/08/24 01:43:29;;;;;;;8.98;4.93;;;;;;;18.11;100.00;96149.84;1020348;29;20031;-72
2023/08/24 01:43:59;;;;;;;10.25;5.13;;;;;;;18.13;100.00;96158.28;1015882;29;20020;-72
2023/08/24 01:44:30;;;;;;;8.93;5.30;;;;;;;18.13;100.00;96158.28;1023743;29;20044;-72
2023/08/24 01:45:00;;;;;;;6.93;5.13;;;;;;;18.14;100.00;96157.19;1023690;29;20491;-73
2023/08/24 01:45:31;;;;;;;6.72;5.50;;;;;;;18.11;100.00;96150.63;1019725;29;20077;-73
2023/08/24 01:46:04;;;;;;;10.02;5.43;;;;;;;18.16;100.00;96156.91;1015868;29;20056;-73
2023/08/24 01:46:35;;;;;;;7.70;4.90;;;;;;;18.14;100.00;96160.66;1023618;28;20392;-72
2023/08/24 01:47:05;;;;;;;7.40;5.53;;;;;;;18.12;100.00;96146.88;1019710;29;20027;-72
2023/08/24 01:47:36;;;;;;;5.53;4.97;;;;;;;18.11;100.00;96150.63;1019772;29;20501;-72
2023/08/24 01:48:07;;;;;;;11.07;5.55;;;;;;;18.14;100.00;96155.34;1019767;29;20054;-73
2023/08/24 01:48:37;;;;;;;10.48;5.28;;;;;;;18.04;100.00;96142.28;1022812;28;20019;-73
2023/08/24 01:49:08;;;;;;;7.80;5.78;;;;;;;18.13;100.00;96156.41;1027744;28;20015;-73
2023/08/24 01:49:39;;;;;;;8.10;4.85;;;;;;;18.16;100.00;96156.91;1015770;29;20092;-73
2023/08/24 01:50:09;;;;;;;5.50;4.50;;;;;;;18.14;100.00;96160.66;1021794;29;20016;-72
2023/08/24 01:50:40;;;;;;;7.78;4.93;;;;;;;18.13;100.00;96153.75;1019794;29;20027;-72
2023/08/24 01:51:10;;;;;;;6.40;5.57;;;;;;;18.11;100.00;96160.47;1023793;29;20038;-72
2023/08/24 01:51:42;;;;;;;10.07;6.07;;;;;;;18.14;100.00;96162.50;1019356;29;20027;-72
2023/08/24 01:52:12;;;;;;;7.15;5.43;;;;;;;18.11;100.00;96155.16;1019774;29;20413;-73
2023/08/24 01:52:43;;;;;;;8.15;4.93;;;;;;;18.12;100.00;96160.16;1012041;29;20036;-72
2023/08/24 01:53:13;;;;;;;6.47;5.32;;;;;;;18.12;100.00;96162.81;1023083;29;20560;-73
2023/08/24 01:53:44;;;;;;;6.80;5.10;;;;;;;18.07;100.00;96154.94;1019223;29;20112;-73
2023/08/24 01:54:14;;;;;;;8.82;5.10;;;;;;;18.13;100.00;96158.28;1023791;28;20027;-73
2023/08/24 01:54:45;;;;;;;5.78;5.18;;;;;;;18.08;100.00;96148.56;1027556;28;20049;-73
2023/08/24 01:55:18;;;;;;;10.02;5.40;;;;;;;18.12;100.00;96160.16;1027761;28;20074;-72
2023/08/24 01:55:48;;;;;;;6.35;5.40;;;;;;;18.13;100.00;96161.72;1027345;28;20029;-72
2023/08/24 01:56:19;;;;;;;11.35;5.88;;;;;;;18.13;100.00;96158.28;1020102;29;20503;-73
2023/08/24 01:56:49;;;;;;;6.88;5.28;;;;;;;18.11;100.00;96155.94;1018994;29;20083;-73
2023/08/24 01:57:20;;;;;;;11.70;5.40;;;;;;;18.12;100.00;96152.19;1023577;29;20027;-73
2023/08/24 01:57:50;;;;;;;8.43;6.07;;;;;;;18.05;100.00;96151.81;1023576;29;20026;-73
2023/08/24 01:58:21;;;;;;;7.43;5.60;;;;;;;18.06;100.00;96147.28;1023723;29;20023;-72
2023/08/24 01:58:51;;;;;;;7.68;5.20;;;;;;;18.10;100.00;96154.34;1018986;29;20090;-73
2023/08/24 01:59:22;;;;;;;6.07;5.18;;;;;;;18.10;100.00;96154.34;1019859;29;20107;-72
2023/08/24 01:59:52;;;;;;;9.57;5.70;;;;;;;18.10;100.00;96151.69;1019718;29;20028;-73
2023/08/24 02:00:23;;;;;;;11.45;5.43;;;;;;;18.08;100.00;96156.53;1019030;29;20031;-72
2023/08/24 02:00:53;;;;;;;9.38;5.60;;;;;;;18.08;100.00;96155.75;1023512;29;20726;-73
2023/08/24 02:01:23;;;;;;;6.18;5.40;;;;;;;18.07;100.00;96148.84;1019723;29;20715;-72
2023/08/24 02:01:54;;;;;;;8.73;5.72;;;;;;;18.06;100.00;96153.38;1018968;29;20050;-74
2023/08/24 02:02:24;;;;;;;6.10;5.43;;;;;;;18.00;100.00;96143.94;1019771;29;20024;-73
2023/08/24 02:02:55;;;;;;;6.95;5.13;;;;;;;18.04;100.00;96149.44;1023376;29;20086;-73
2023/08/24 02:03:25;;;;;;;8.27;5.47;;;;;;;17.98;100.00;96140.03;1022957;28;20809;-74
2023/08/24 02:03:56;;;;;;;7.18;5.82;;;;;;;18.02;100.00;96152.41;1023271;28;20019;-73
2023/08/24 02:04:26;;;;;;;7.35;5.25;;;;;;;18.02;100.00;96152.41;1015650;29;20035;-73
2023/08/24 02:04:57;;;;;;;9.52;6.68;;;;;;;17.97;100.00;96144.53;1015644;29;20024;-73
2023/08/24 02:05:28;;;;;;;8.05;5.90;;;;;;;18.00;100.00;96146.59;1023552;28;20031;-73
2023/08/24 02:05:59;;;;;;;7.93;5.60;;;;;;;18.02;100.00;96147.09;1027477;28;20026;-73
2023/08/24 02:06:29;;;;;;;7.32;5.57;;;;;;;18.01;100.00;96148.19;1023525;28;20028;-73
2023/08/24 02:07:00;;;;;;;7.07;5.60;;;;;;;18.01;100.00;96150.84;1019110;29;20046;-73
2023/08/24 02:07:30;;;;;;;5.85;5.18;;;;;;;17.99;100.00;96153.00;1015987;29;20031;-72
2023/08/24 02:08:01;;;;;;;9.88;5.68;;;;;;;17.99;100.00;96150.34;1017889;28;20032;-72
2023/08/24 02:08:31;;;;;;;7.15;5.03;;;;;;;17.98;100.00;96148.78;1027674;28;20026;-74
2023/08/24 02:09:02;;;;;;;8.48;5.30;;;;;;;17.97;100.00;96149.84;1029397;28;20048;-71
2023/08/24 02:09:32;;;;;;;8.68;5.05;;;;;;;17.98;100.00;96151.44;1027706;28;20361;-73
2023/08/24 02:10:03;;;;;;;7.88;5.00;;;;;;;18.00;100.00;96149.25;1017568;29;20032;-72
2023/08/24 02:10:34;;;;;;;7.90;5.60;;;;;;;17.98;100.00;96143.47;1017453;29;20024;-73
2023/08/24 02:11:04;;;;;;;6.60;5.30;;;;;;;17.98;100.00;96150.66;1017473;29;20024;-73
2023/08/24 02:11:35;;;;;;;6.53;5.22;;;;;;;17.96;100.00;96148.28;1023618;28;20031;-73
2023/08/24 02:12:05;;;;;;;6.90;5.50;;;;;;;18.00;100.00;96145.81;1025869;28;20038;-73
2023/08/24 02:12:36;;;;;;;5.28;4.78;;;;;;;17.93;100.00;96138.25;1023457;29;20108;-73
2023/08/24 02:13:06;;;;;;;7.88;5.45;;;;;;;17.98;100.00;96140.81;1019873;28;20028;-73
2023/08/24 02:13:37;;;;;;;8.80;5.53;;;;;;;18.00;100.00;96137.84;1023077;28;20123;-73
2023/08/24 02:14:07;;;;;;;8.90;5.63;;;;;;;17.98;100.00;96146.13;1027605;28;20022;-73
2023/08/24 02:14:37;;;;;;;7.00;5.10;;;;;;;17.99;100.00;96141.59;1027529;28;20058;-73
2023/08/24 02:15:08;;;;;;;8.15;5.30;;;;;;;17.98;100.00;96146.13;1023757;28;20019;-72
2023/08/24 02:15:39;;;;;;;8.45;5.40;;;;;;;17.98;100.00;96137.38;1027537;28;20788;-73
2023/08/24 02:16:10;;;;;;;8.75;6.00;;;;;;;17.95;100.00;96135.31;1023760;29;20031;-72
2023/08/24 02:16:40;;;;;;;6.78;5.47;;;;;;;17.99;100.00;96144.25;1015690;29;20028;-73
2023/08/24 02:17:10;;;;;;;6.72;4.93;;;;;;;17.97;100.00;96131.25;1015839;29;20470;-73
2023/08/24 02:17:41;;;;;;;8.98;5.03;;;;;;;17.97;100.00;96144.53;1016105;29;20039;-73
2023/08/24 02:18:11;;;;;;;10.50;5.00;;;;;;;17.97;100.00;96135.78;1019972;29;20036;-72
2023/08/24 02:18:42;;;;;;;9.50;5.93;;;;;;;17.97;100.00;96136.56;1019637;29;20493;-73
2023/08/24 02:19:12;;;;;;;11.32;5.50;;;;;;;17.98;100.00;96134.72;1023575;29;20055;-73
2023/08/24 02:19:43;;;;;;;6.97;5.07;;;;;;;17.96;100.00;96135.00;1019762;29;20024;-72
2023/08/24 02:20:14;;;;;;;9.00;5.40;;;;;;;17.93;100.00;96127.66;1019753;29;20024;-73
2023/08/24 02:20:44;;;;;;;6.53;5.78;;;;;;;17.95;100.00;96130.78;1019502;29;20047;-73
2023/08/24 02:21:16;;;;;;;8.13;5.63;;;;;;;17.96;100.00;96136.88;1019874;29;20598;-73
2023/08/24 02:21:46;;;;;;;16.05;6.38;;;;;;;17.94;100.00;96133.75;1019954;29;20086;-73
2023/08/24 02:22:17;;;;;;;7.10;5.45;;;;;;;17.93;100.00;96138.25;1019556;29;20466;-72
2023/08/24 02:22:47;;;;;;;11.00;5.88;;;;;;;17.92;100.00;96134.06;1023285;28;20023;-71
2023/08/24 02:23:18;;;;;;;12.27;5.57;;;;;;;17.92;100.00;96138.56;1019771;29;20100;-73
2023/08/24 02:23:48;;;;;;;8.35;5.97;;;;;;;17.93;100.00;96135.63;1024290;29;20499;-73
2023/08/24 02:24:19;;;;;;;5.63;5.03;;;;;;;17.92;100.00;96131.41;1024216;29;20457;-73
2023/08/24 02:24:49;;;;;;;7.68;5.68;;;;;;;17.92;100.00;96136.69;1023954;28;20023;-72
2023/08/24 02:25:20;;;;;;;8.23;5.60;;;;;;;17.92;100.00;96136.69;1027717;28;20026;-73
2023/08/24 02:25:50;;;;;;;9.35;6.03;;;;;;;17.94;100.00;96134.53;1027656;28;20026;-73
2023/08/24 02:26:21;;;;;;;8.05;5.43;;;;;;;17.93;100.00;96132.97;1024157;29;20087;-73
2023/08/24 02:26:51;;;;;;;8.45;5.82;;;;;;;17.93;100.00;96126.88;1024025;29;20062;-73
2023/08/24 02:27:22;;;;;;;7.00;5.60;;;;;;;17.91;100.00;96121.88;1019903;29;20125;-73
2023/08/24 02:27:52;;;;;;;6.57;5.60;;;;;;;17.92;100.00;96128.75;1016264;29;20024;-72